Wetterdaten: Woche 24.09.12 - 30.09.12 (KW39)
Datum Zeit Temp. I. Temp. A. Boden 5 cm Feuchte A. Sonne Luftdruck Regen Wind Sonnenschein Zeit Regen
24.09.2012 00:00 22,3 C 11,6 C 11,0 C 88 % 0 % 1004 hPa 0,0 l/m 13,3 km/h (3 Bft) 0,00 h 0,00 h
24.09.2012 01:00 22,2 C 11,1 C 10,7 C 88 % 0 % 1003 hPa 0,0 l/m 14,9 km/h (3 Bft) 0,00 h 0,00 h
24.09.2012 02:00 22,2 C 10,4 C 10,0 C 91 % 0 % 1002 hPa 0,0 l/m 8,0 km/h (2 Bft) 0,00 h 0,00 h
24.09.2012 03:00 22,1 C 10,1 C 9,8 C 92 % 0 % 1002 hPa 0,0 l/m 5,0 km/h (1 Bft) 0,00 h 0,00 h
24.09.2012 04:00 22,2 C 9,5 C 9,4 C 93 % 0 % 1001 hPa 0,0 l/m 5,4 km/h (1 Bft) 0,00 h 0,00 h
24.09.2012 05:00 22,2 C 9,2 C 9,1 C 94 % 0 % 1000 hPa 0,0 l/m 6,5 km/h (2 Bft) 0,00 h 0,00 h
24.09.2012 06:00 22,4 C 9,0 C 8,9 C 94 % 0 % 1000 hPa 0,0 l/m 6,0 km/h (2 Bft) 0,00 h 0,00 h
24.09.2012 07:00 21,5 C 9,0 C 9,1 C 96 % 6 % 1000 hPa 0,0 l/m 12,2 km/h (2 Bft) 0,00 h 0,00 h
24.09.2012 08:00 21,9 C 10,0 C 11,4 C 94 % 18 % 999 hPa 0,0 l/m 12,7 km/h (3 Bft) 0,00 h 0,00 h
24.09.2012 09:00 21,9 C 11,3 C 13,7 C 90 % 28 % 999 hPa 0,0 l/m 17,8 km/h (3 Bft) 0,00 h 0,00 h
24.09.2012 10:00 22,4 C 12,8 C 15,0 C 85 % 35 % 998 hPa 0,0 l/m 16,3 km/h (3 Bft) 0,00 h 0,00 h
24.09.2012 11:00 22,5 C 15,3 C 18,2 C 78 % 52 % 997 hPa 0,0 l/m 13,9 km/h (3 Bft) 0,40 h 0,00 h
24.09.2012 12:00 22,4 C 16,5 C 17,7 C 75 % 56 % 997 hPa 0,0 l/m 14,6 km/h (3 Bft) 0,45 h 0,00 h
24.09.2012 13:00 22,4 C 16,7 C 16,9 C 75 % 33 % 997 hPa 0,0 l/m 12,0 km/h (2 Bft) 0,10 h 0,00 h
24.09.2012 14:00 22,4 C 17,2 C 18,6 C 76 % 60 % 998 hPa 0,0 l/m 4,9 km/h (1 Bft) 0,70 h 0,00 h
24.09.2012 15:00 22,5 C 18,4 C 21,4 C 77 % 54 % 997 hPa 0,0 l/m 2,2 km/h (1 Bft) 0,25 h 0,00 h
24.09.2012 16:00 22,5 C 19,7 C 23,5 C 71 % 77 % 997 hPa 0,0 l/m 14,2 km/h (3 Bft) 0,90 h 0,00 h
24.09.2012 17:00 22,6 C 19,1 C 17,9 C 74 % 10 % 998 hPa 0,0 l/m 6,9 km/h (2 Bft) 0,00 h 0,00 h
24.09.2012 18:00 22,4 C 17,5 C 15,5 C 82 % 1 % 999 hPa 2,1 l/m 4,9 km/h (1 Bft) 0,00 h 0,75 h
24.09.2012 19:00 22,4 C 15,8 C 14,6 C 91 % 0 % 999 hPa 0,3 l/m 2,3 km/h (1 Bft) 0,00 h 0,70 h
24.09.2012 20:00 22,4 C 15,3 C 14,4 C 93 % 0 % 1000 hPa 0,3 l/m 5,4 km/h (1 Bft) 0,00 h 0,95 h
24.09.2012 21:00 22,4 C 15,1 C 14,4 C 95 % 0 % 1000 hPa 0,3 l/m 1,9 km/h (1 Bft) 0,00 h 0,05 h
24.09.2012 22:00 22,4 C 15,0 C 14,1 C 94 % 0 % 1001 hPa 0,0 l/m 2,5 km/h (1 Bft) 0,00 h 0,00 h
24.09.2012 23:00 22,3 C 14,8 C 13,8 C 94 % 0 % 1001 hPa 0,0 l/m 4,9 km/h (1 Bft) 0,00 h 0,00 h
25.09.2012 00:00 22,2 C 14,3 C 13,5 C 95 % 0 % 1002 hPa 0,0 l/m 4,4 km/h (1 Bft) 0,00 h 0,00 h
25.09.2012 01:00 22,2 C 14,3 C 13,2 C 93 % 0 % 1002 hPa 0,0 l/m 11,4 km/h (2 Bft) 0,00 h 0,00 h
25.09.2012 02:00 22,1 C 14,0 C 12,9 C 90 % 0 % 1002 hPa 0,0 l/m 10,3 km/h (2 Bft) 0,00 h 0,00 h
25.09.2012 03:00 22,1 C 13,1 C 12,1 C 91 % 0 % 1003 hPa 0,0 l/m 5,6 km/h (1 Bft) 0,00 h 0,00 h
25.09.2012 04:00 22,2 C 11,9 C 10,9 C 93 % 0 % 1003 hPa 0,0 l/m 1,4 km/h (1 Bft) 0,00 h 0,00 h
25.09.2012 05:00 22,2 C 11,0 C 10,5 C 96 % 0 % 1003 hPa 0,0 l/m 4,2 km/h (1 Bft) 0,00 h 0,00 h
25.09.2012 06:00 22,4 C 10,7 C 10,3 C 98 % 0 % 1002 hPa 0,0 l/m 3,3 km/h (1 Bft) 0,00 h 0,00 h
25.09.2012 07:00 21,8 C 11,0 C 10,6 C 98 % 6 % 1003 hPa 0,0 l/m 0,4 km/h (0 Bft) 0,00 h 0,00 h
25.09.2012 08:00 22,3 C 11,7 C 15,7 C 97 % 14 % 1003 hPa 0,0 l/m 5,5 km/h (1 Bft) 0,00 h 0,00 h
25.09.2012 09:00 22,3 C 13,5 C 19,6 C 93 % 28 % 1002 hPa 0,0 l/m 14,0 km/h (3 Bft) 0,00 h 0,00 h
25.09.2012 10:00 22,4 C 15,5 C 20,0 C 87 % 39 % 1002 hPa 0,0 l/m 17,4 km/h (3 Bft) 0,00 h 0,00 h
25.09.2012 11:00 22,5 C 17,4 C 21,5 C 76 % 61 % 1002 hPa 0,0 l/m 15,0 km/h (3 Bft) 0,75 h 0,00 h
25.09.2012 12:00 22,4 C 19,0 C 20,5 C 63 % 92 % 1001 hPa 0,0 l/m 18,6 km/h (3 Bft) 1,00 h 0,00 h
25.09.2012 13:00 22,4 C 20,1 C 20,1 C 51 % 94 % 1000 hPa 0,0 l/m 19,1 km/h (3 Bft) 1,00 h 0,00 h
25.09.2012 14:00 22,2 C 20,9 C 20,4 C 44 % 94 % 999 hPa 0,0 l/m 22,8 km/h (4 Bft) 1,00 h 0,00 h
25.09.2012 15:00 22,3 C 21,1 C 22,0 C 44 % 98 % 999 hPa 0,0 l/m 22,1 km/h (4 Bft) 0,98 h 0,00 h
25.09.2012 16:00 22,3 C 20,5 C 19,5 C 49 % 37 % 999 hPa 0,0 l/m 14,4 km/h (3 Bft) 0,25 h 0,00 h
25.09.2012 17:00 22,8 C 19,8 C 18,3 C 56 % 22 % 998 hPa 0,0 l/m 7,9 km/h (2 Bft) 0,10 h 0,00 h
25.09.2012 18:00 22,5 C 18,7 C 16,5 C 63 % 8 % 998 hPa 0,0 l/m 0,2 km/h (0 Bft) 0,65 h 0,00 h
25.09.2012 19:00 22,5 C 17,5 C 14,3 C 67 % 0 % 998 hPa 0,0 l/m 0,1 km/h (0 Bft) 0,00 h 0,00 h
25.09.2012 20:00 22,5 C 17,1 C 13,9 C 69 % 0 % 998 hPa 0,0 l/m 5,7 km/h (1 Bft) 0,00 h 0,00 h
25.09.2012 21:00 22,5 C 16,3 C 13,5 C 73 % 0 % 998 hPa 0,0 l/m 5,5 km/h (1 Bft) 0,00 h 0,00 h
25.09.2012 22:00 22,4 C 15,8 C 13,5 C 77 % 0 % 998 hPa 0,0 l/m 5,5 km/h (1 Bft) 0,00 h 0,00 h
25.09.2012 23:00 22,4 C 15,5 C 13,8 C 80 % 0 % 998 hPa 0,0 l/m 7,6 km/h (2 Bft) 0,00 h 0,00 h
26.09.2012 00:00 22,3 C 15,4 C 14,2 C 82 % 0 % 998 hPa 0,0 l/m 12,6 km/h (3 Bft) 0,00 h 0,00 h
26.09.2012 01:00 22,3 C 14,9 C 13,4 C 84 % 0 % 998 hPa 0,0 l/m 8,7 km/h (2 Bft) 0,00 h 0,00 h
26.09.2012 02:00 22,2 C 13,6 C 12,5 C 87 % 0 % 998 hPa 0,0 l/m 3,0 km/h (1 Bft) 0,00 h 0,00 h
26.09.2012 03:00 22,2 C 13,9 C 12,7 C 87 % 0 % 998 hPa 0,0 l/m 7,4 km/h (2 Bft) 0,00 h 0,00 h
26.09.2012 04:00 22,2 C 13,5 C 12,3 C 88 % 0 % 997 hPa 0,0 l/m 5,3 km/h (1 Bft) 0,00 h 0,00 h
26.09.2012 05:00 22,3 C 13,4 C 12,5 C 88 % 0 % 997 hPa 0,0 l/m 8,4 km/h (2 Bft) 0,00 h 0,00 h
26.09.2012 06:00 22,4 C 13,0 C 12,1 C 88 % 0 % 997 hPa 0,0 l/m 5,5 km/h (1 Bft) 0,00 h 0,00 h
26.09.2012 07:00 21,5 C 12,9 C 12,4 C 88 % 4 % 998 hPa 0,0 l/m 5,3 km/h (1 Bft) 0,00 h 0,00 h
26.09.2012 08:00 22,2 C 13,5 C 15,5 C 88 % 16 % 998 hPa 0,0 l/m 8,5 km/h (2 Bft) 0,00 h 0,00 h
26.09.2012 09:00 22,3 C 15,7 C 23,2 C 82 % 36 % 998 hPa 0,0 l/m 13,0 km/h (3 Bft) 0,00 h 0,00 h
26.09.2012 10:00 22,4 C 17,8 C 19,1 C 70 % 40 % 998 hPa 0,0 l/m 17,6 km/h (3 Bft) 0,15 h 0,00 h
26.09.2012 11:00 22,3 C 19,3 C 21,9 C 66 % 66 % 998 hPa 0,0 l/m 17,9 km/h (3 Bft) 0,75 h 0,00 h
26.09.2012 12:00 22,3 C 21,4 C 22,9 C 57 % 58 % 998 hPa 0,0 l/m 20,0 km/h (4 Bft) 0,45 h 0,00 h
26.09.2012 13:00 22,4 C 22,4 C 22,3 C 54 % 62 % 998 hPa 0,0 l/m 16,9 km/h (3 Bft) 0,40 h 0,00 h
26.09.2012 14:00 22,7 C 22,4 C 21,9 C 57 % 54 % 998 hPa 0,0 l/m 15,7 km/h (3 Bft) 0,25 h 0,00 h
26.09.2012 15:00 22,5 C 22,3 C 23,0 C 61 % 65 % 998 hPa 0,0 l/m 13,4 km/h (3 Bft) 0,70 h 0,00 h
26.09.2012 16:00 22,4 C 21,9 C 22,5 C 62 % 54 % 998 hPa 0,0 l/m 12,4 km/h (3 Bft) 0,65 h 0,00 h
26.09.2012 17:00 22,5 C 20,6 C 19,3 C 69 % 14 % 997 hPa 0,0 l/m 18,2 km/h (3 Bft) 0,00 h 0,00 h
26.09.2012 18:00 22,6 C 19,6 C 18,5 C 74 % 8 % 997 hPa 0,0 l/m 16,7 km/h (3 Bft) 0,55 h 0,00 h
26.09.2012 19:00 22,7 C 18,9 C 17,8 C 78 % 0 % 997 hPa 0,0 l/m 15,9 km/h (3 Bft) 0,00 h 0,00 h
26.09.2012 20:00 22,5 C 18,6 C 17,4 C 80 % 0 % 997 hPa 0,0 l/m 14,5 km/h (3 Bft) 0,00 h 0,00 h
26.09.2012 21:00 22,5 C 18,2 C 17,0 C 82 % 0 % 997 hPa 0,0 l/m 13,9 km/h (3 Bft) 0,00 h 0,00 h
26.09.2012 22:00 22,4 C 18,2 C 17,1 C 77 % 0 % 997 hPa 0,0 l/m 14,7 km/h (3 Bft) 0,00 h 0,00 h
26.09.2012 23:00 22,4 C 18,1 C 16,3 C 73 % 0 % 997 hPa 0,0 l/m 11,0 km/h (2 Bft) 0,00 h 0,00 h
27.09.2012 00:00 22,3 C 18,2 C 17,2 C 70 % 0 % 996 hPa 0,0 l/m 10,9 km/h (2 Bft) 0,00 h 0,00 h
27.09.2012 01:00 22,3 C 17,8 C 16,1 C 71 % 0 % 996 hPa 0,0 l/m 3,8 km/h (1 Bft) 0,00 h 0,00 h
27.09.2012 02:00 22,2 C 16,7 C 14,6 C 76 % 0 % 996 hPa 0,0 l/m 0,9 km/h (0 Bft) 0,00 h 0,00 h
27.09.2012 03:00 22,2 C 15,5 C 14,2 C 85 % 0 % 997 hPa 0,0 l/m 3,2 km/h (1 Bft) 0,00 h 0,00 h
27.09.2012 04:00 22,3 C 14,9 C 14,2 C 86 % 0 % 999 hPa 0,0 l/m 22,0 km/h (4 Bft) 0,00 h 0,00 h
27.09.2012 05:00 22,4 C 13,2 C 12,5 C 85 % 0 % 1002 hPa 0,3 l/m 32,2 km/h (5 Bft) 0,00 h 0,50 h
27.09.2012 06:00 22,5 C 11,9 C 11,8 C 94 % 0 % 1004 hPa 1,0 l/m 19,8 km/h (3 Bft) 0,00 h 1,00 h
27.09.2012 07:00 21,9 C 11,7 C 11,8 C 95 % 2 % 1005 hPa 0,0 l/m 8,3 km/h (2 Bft) 0,00 h 0,30 h
27.09.2012 08:00 22,4 C 11,7 C 12,0 C 94 % 12 % 1006 hPa 0,0 l/m 16,0 km/h (3 Bft) 0,00 h 0,20 h
27.09.2012 09:00 22,4 C 11,8 C 12,4 C 94 % 19 % 1007 hPa 0,0 l/m 12,6 km/h (3 Bft) 0,00 h 0,00 h
27.09.2012 10:00 22,5 C 12,4 C 13,3 C 91 % 31 % 1007 hPa 0,0 l/m 7,0 km/h (2 Bft) 0,00 h 0,00 h
27.09.2012 11:00 22,5 C 13,0 C 13,5 C 87 % 32 % 1007 hPa 0,0 l/m 5,5 km/h (1 Bft) 0,00 h 0,00 h
27.09.2012 12:00 22,5 C 13,7 C 14,2 C 79 % 39 % 1008 hPa 0,0 l/m 8,6 km/h (2 Bft) 0,00 h 0,00 h
27.09.2012 13:00 22,6 C 14,4 C 15,1 C 74 % 42 % 1008 hPa 0,0 l/m 5,9 km/h (2 Bft) 0,00 h 0,00 h
27.09.2012 14:00 22,8 C 14,6 C 15,2 C 72 % 34 % 1008 hPa 0,0 l/m 4,5 km/h (1 Bft) 0,00 h 0,00 h
27.09.2012 15:00 22,2 C 15,4 C 17,8 C 67 % 48 % 1007 hPa 0,0 l/m 3,0 km/h (1 Bft) 0,10 h 0,00 h
27.09.2012 16:00 22,7 C 15,4 C 16,4 C 68 % 50 % 1007 hPa 0,0 l/m 1,5 km/h (1 Bft) 0,50 h 0,00 h
27.09.2012 17:00 22,8 C 15,1 C 14,9 C 74 % 12 % 1007 hPa 0,0 l/m 3,9 km/h (1 Bft) 0,00 h 0,00 h
27.09.2012 18:00 22,8 C 14,5 C 14,1 C 79 % 4 % 1007 hPa 0,0 l/m 5,2 km/h (1 Bft) 0,00 h 0,00 h
27.09.2012 19:00 23,1 C 14,2 C 13,7 C 80 % 0 % 1008 hPa 0,0 l/m 0,5 km/h (0 Bft) 0,00 h 0,00 h
27.09.2012 20:00 22,9 C 13,8 C 13,3 C 84 % 0 % 1009 hPa 0,7 l/m 1,7 km/h (1 Bft) 0,00 h 0,70 h
27.09.2012 21:00 22,8 C 13,1 C 12,8 C 88 % 0 % 1010 hPa 0,3 l/m 5,1 km/h (1 Bft) 0,00 h 0,90 h
27.09.2012 22:00 22,8 C 12,5 C 12,3 C 92 % 0 % 1010 hPa 0,7 l/m 9,5 km/h (2 Bft) 0,00 h 0,70 h
27.09.2012 23:00 22,7 C 12,1 C 12,0 C 94 % 0 % 1011 hPa 0,7 l/m 8,8 km/h (2 Bft) 0,00 h 1,00 h
28.09.2012 00:00 22,6 C 11,8 C 11,9 C 94 % 0 % 1012 hPa 0,0 l/m 8,3 km/h (2 Bft) 0,00 h 0,20 h
28.09.2012 01:00 22,5 C 11,8 C 11,8 C 94 % 0 % 1012 hPa 0,0 l/m 5,7 km/h (1 Bft) 0,00 h 0,00 h
28.09.2012 02:00 22,4 C 11,7 C 11,7 C 94 % 0 % 1013 hPa 0,0 l/m 3,7 km/h (1 Bft) 0,00 h 0,00 h
28.09.2012 03:00 22,4 C 10,9 C 11,0 C 93 % 0 % 1013 hPa 0,0 l/m 1,2 km/h (1 Bft) 0,00 h 0,00 h
28.09.2012 04:00 22,5 C 10,5 C 10,5 C 93 % 0 % 1013 hPa 0,0 l/m 1,0 km/h (0 Bft) 0,00 h 0,00 h
28.09.2012 05:00 22,6 C 10,0 C 10,2 C 93 % 0 % 1013 hPa 0,0 l/m 3,9 km/h (1 Bft) 0,00 h 0,00 h
28.09.2012 06:00 22,7 C 9,9 C 9,9 C 93 % 0 % 1014 hPa 0,0 l/m 4,3 km/h (1 Bft) 0,00 h 0,00 h
28.09.2012 07:00 22,8 C 10,0 C 10,2 C 92 % 5 % 1014 hPa 0,0 l/m 0,8 km/h (0 Bft) 0,00 h 0,00 h
28.09.2012 08:00 22,8 C 10,7 C 13,0 C 93 % 12 % 1015 hPa 0,0 l/m 4,0 km/h (1 Bft) 0,00 h 0,00 h
28.09.2012 09:00 22,8 C 11,9 C 22,3 C 93 % 23 % 1015 hPa 0,0 l/m 6,6 km/h (2 Bft) 0,00 h 0,00 h
28.09.2012 10:00 22,9 C 13,1 C 27,5 C 86 % 38 % 1015 hPa 0,0 l/m 3,4 km/h (1 Bft) 0,00 h 0,00 h
28.09.2012 11:00 23,0 C 14,6 C 22,5 C 78 % 51 % 1015 hPa 0,0 l/m 2,9 km/h (1 Bft) 0,50 h 0,00 h
28.09.2012 12:00 22,9 C 16,2 C 19,6 C 70 % 96 % 1015 hPa 0,0 l/m 4,9 km/h (1 Bft) 1,00 h 0,00 h
28.09.2012 13:00 23,0 C 17,3 C 17,0 C 61 % 98 % 1014 hPa 0,0 l/m 4,5 km/h (1 Bft) 1,00 h 0,00 h
28.09.2012 14:00 23,1 C 17,7 C 17,1 C 61 % 98 % 1014 hPa 0,0 l/m 5,7 km/h (1 Bft) 1,00 h 0,00 h
28.09.2012 15:00 23,0 C 17,8 C 23,7 C 60 % 98 % 1013 hPa 0,0 l/m 3,4 km/h (1 Bft) 1,00 h 0,00 h
28.09.2012 16:00 23,0 C 17,4 C 21,8 C 61 % 94 % 1013 hPa 0,0 l/m 2,0 km/h (1 Bft) 1,00 h 0,00 h
28.09.2012 17:00 23,2 C 16,6 C 18,4 C 66 % 39 % 1013 hPa 0,0 l/m 1,2 km/h (1 Bft) 1,00 h 0,00 h
28.09.2012 18:00 23,3 C 15,7 C 15,6 C 68 % 10 % 1013 hPa 0,0 l/m 0,1 km/h (0 Bft) 0,70 h 0,00 h
28.09.2012 19:00 23,1 C 14,7 C 13,4 C 69 % 0 % 1013 hPa 0,0 l/m 0,0 km/h (0 Bft) 0,00 h 0,00 h
28.09.2012 20:00 23,0 C 13,8 C 12,5 C 73 % 0 % 1013 hPa 0,0 l/m 0,0 km/h (0 Bft) 0,00 h 0,00 h
28.09.2012 21:00 23,0 C 13,1 C 11,9 C 75 % 0 % 1013 hPa 0,0 l/m 0,0 km/h (0 Bft) 0,00 h 0,00 h
28.09.2012 22:00 22,9 C 12,4 C 11,4 C 77 % 0 % 1013 hPa 0,0 l/m 0,0 km/h (0 Bft) 0,00 h 0,00 h
28.09.2012 23:00 22,9 C 11,9 C 11,1 C 79 % 0 % 1012 hPa 0,0 l/m 0,0 km/h (0 Bft) 0,00 h 0,00 h
29.09.2012 00:00 23,2 C 11,3 C 10,5 C 81 % 0 % 1012 hPa 0,0 l/m 0,0 km/h (0 Bft) 0,00 h 0,00 h
29.09.2012 01:00 23,1 C 10,8 C 10,2 C 82 % 0 % 1012 hPa 0,0 l/m 0,0 km/h (0 Bft) 0,00 h 0,00 h
29.09.2012 02:00 22,9 C 10,3 C 9,7 C 84 % 0 % 1012 hPa 0,0 l/m 0,0 km/h (0 Bft) 0,00 h 0,00 h
29.09.2012 03:00 22,8 C 9,7 C 9,6 C 84 % 0 % 1012 hPa 0,0 l/m 0,0 km/h (0 Bft) 0,00 h 0,00 h
29.09.2012 04:00 22,9 C 9,3 C 9,0 C 85 % 0 % 1012 hPa 0,0 l/m 0,0 km/h (0 Bft) 0,00 h 0,00 h
29.09.2012 05:00 23,0 C 8,6 C 8,8 C 87 % 0 % 1011 hPa 0,0 l/m 0,0 km/h (0 Bft) 0,00 h 0,00 h
29.09.2012 06:00 23,0 C 8,3 C 9,0 C 89 % 0 % 1011 hPa 0,0 l/m 0,0 km/h (0 Bft) 0,00 h 0,00 h
29.09.2012 07:00 22,9 C 8,0 C 9,2 C 90 % 3 % 1011 hPa 0,0 l/m 0,0 km/h (0 Bft) 0,00 h 0,00 h
29.09.2012 08:00 22,2 C 8,2 C 10,2 C 93 % 15 % 1011 hPa 0,0 l/m 0,3 km/h (0 Bft) 0,00 h 0,00 h
29.09.2012 09:00 22,7 C 9,6 C 12,6 C 94 % 22 % 1011 hPa 0,0 l/m 0,1 km/h (0 Bft) 0,00 h 0,00 h
29.09.2012 10:00 22,9 C 11,0 C 14,5 C 93 % 33 % 1012 hPa 0,0 l/m 0,6 km/h (0 Bft) 0,00 h 0,00 h
29.09.2012 11:00 23,0 C 13,0 C 17,1 C 89 % 52 % 1011 hPa 0,0 l/m 4,5 km/h (1 Bft) 0,55 h 0,00 h
29.09.2012 12:00 22,0 C 14,5 C 16,5 C 83 % 49 % 1011 hPa 0,0 l/m 5,2 km/h (1 Bft) 0,35 h 0,00 h
29.09.2012 13:00 22,6 C 14,9 C 16,0 C 81 % 28 % 1010 hPa 0,0 l/m 1,6 km/h (1 Bft) 0,00 h 0,00 h
29.09.2012 14:00 22,7 C 15,0 C 15,8 C 83 % 24 % 1010 hPa 0,0 l/m 0,3 km/h (0 Bft) 0,00 h 0,00 h
29.09.2012 15:00 22,9 C 15,3 C 15,9 C 82 % 21 % 1009 hPa 0,0 l/m 1,7 km/h (1 Bft) 0,00 h 0,00 h
29.09.2012 16:00 22,5 C 15,2 C 15,1 C 85 % 12 % 1010 hPa 0,0 l/m 7,5 km/h (2 Bft) 0,00 h 0,00 h
29.09.2012 17:00 22,9 C 14,6 C 14,2 C 89 % 6 % 1010 hPa 0,0 l/m 14,6 km/h (3 Bft) 0,00 h 0,35 h
29.09.2012 18:00 22,9 C 13,4 C 13,1 C 94 % 1 % 1011 hPa 0,7 l/m 16,1 km/h (3 Bft) 0,00 h 0,80 h
29.09.2012 19:00 23,0 C 12,6 C 12,5 C 96 % 0 % 1012 hPa 1,7 l/m 10,0 km/h (2 Bft) 0,00 h 1,00 h
29.09.2012 20:00 22,9 C 12,3 C 12,6 C 97 % 0 % 1013 hPa 1,7 l/m 0,6 km/h (0 Bft) 0,00 h 1,00 h
29.09.2012 21:00 22,9 C 12,2 C 12,6 C 97 % 0 % 1013 hPa 0,0 l/m 0,1 km/h (0 Bft) 0,00 h 0,55 h
29.09.2012 22:00 22,8 C 12,2 C 12,5 C 97 % 0 % 1014 hPa 0,3 l/m 0,0 km/h (0 Bft) 0,00 h 1,00 h
29.09.2012 23:00 22,8 C 12,1 C 12,5 C 97 % 0 % 1014 hPa 0,3 l/m 0,1 km/h (0 Bft) 0,00 h 0,80 h
30.09.2012 00:00 22,6 C 11,9 C 12,2 C 97 % 0 % 1014 hPa 0,0 l/m 0,0 km/h (0 Bft) 0,00 h 0,00 h
30.09.2012 01:00 22,6 C 11,8 C 12,0 C 97 % 0 % 1014 hPa 0,0 l/m 0,0 km/h (0 Bft) 0,00 h 0,00 h
30.09.2012 02:00 22,6 C 11,8 C 12,2 C 97 % 0 % 1015 hPa 0,0 l/m 0,0 km/h (0 Bft) 0,00 h 0,00 h
30.09.2012 03:00 22,5 C 11,8 C 12,1 C 97 % 0 % 1015 hPa 0,0 l/m 0,0 km/h (0 Bft) 0,00 h 0,00 h
30.09.2012 04:00 22,6 C 11,7 C 12,1 C 97 % 0 % 1015 hPa 0,0 l/m 0,0 km/h (0 Bft) 0,00 h 0,00 h
30.09.2012 05:00 22,6 C 11,5 C 11,5 C 97 % 0 % 1015 hPa 0,0 l/m 0,0 km/h (0 Bft) 0,00 h 0,00 h
30.09.2012 06:00 22,7 C 11,3 C 11,8 C 97 % 0 % 1015 hPa 0,0 l/m 0,0 km/h (0 Bft) 0,00 h 0,00 h
30.09.2012 07:00 22,8 C 11,2 C 11,6 C 97 % 4 % 1015 hPa 0,0 l/m 0,0 km/h (0 Bft) 0,00 h 0,00 h
30.09.2012 08:00 23,2 C 11,2 C 11,8 C 97 % 13 % 1016 hPa 0,0 l/m 0,9 km/h (0 Bft) 0,00 h 0,00 h
30.09.2012 09:00 23,1 C 11,7 C 13,2 C 97 % 21 % 1016 hPa 0,0 l/m 0,1 km/h (0 Bft) 0,00 h 0,00 h
30.09.2012 10:00 23,1 C 12,5 C 15,3 C 97 % 37 % 1016 hPa 0,0 l/m 2,6 km/h (1 Bft) 0,15 h 0,00 h
30.09.2012 11:00 23,0 C 13,8 C 17,5 C 94 % 40 % 1016 hPa 0,0 l/m 2,2 km/h (1 Bft) 0,10 h 0,00 h
30.09.2012 12:00 21,3 C 15,1 C 17,0 C 86 % 39 % 1016 hPa 0,0 l/m 12,7 km/h (3 Bft) 0,00 h 0,00 h
30.09.2012 13:00 22,5 C 16,6 C 17,7 C 73 % 34 % 1015 hPa 0,0 l/m 14,8 km/h (3 Bft) 0,00 h 0,00 h
30.09.2012 14:00 22,5 C 16,3 C 16,4 C 72 % 30 % 1015 hPa 0,0 l/m 11,4 km/h (2 Bft) 0,00 h 0,00 h
30.09.2012 15:00 22,6 C 16,4 C 17,7 C 74 % 42 % 1015 hPa 0,0 l/m 5,7 km/h (1 Bft) 0,30 h 0,00 h
30.09.2012 16:00 22,6 C 16,4 C 17,2 C 74 % 38 % 1014 hPa 0,0 l/m 5,9 km/h (2 Bft) 0,45 h 0,00 h
30.09.2012 17:00 22,6 C 16,1 C 15,9 C 78 % 14 % 1014 hPa 0,0 l/m 1,1 km/h (1 Bft) 0,00 h 0,00 h
30.09.2012 18:00 22,6 C 15,6 C 14,9 C 80 % 2 % 1013 hPa 0,0 l/m 4,9 km/h (1 Bft) 0,00 h 0,00 h
30.09.2012 19:00 22,6 C 15,0 C 14,1 C 82 % 0 % 1013 hPa 0,0 l/m 4,2 km/h (1 Bft) 0,00 h 0,00 h
30.09.2012 20:00 22,8 C 14,3 C 13,4 C 79 % 0 % 1013 hPa 0,0 l/m 2,1 km/h (1 Bft) 0,00 h 0,00 h
30.09.2012 21:00 22,8 C 13,6 C 12,8 C 82 % 0 % 1014 hPa 0,0 l/m 0,0 km/h (0 Bft) 0,00 h 0,00 h
30.09.2012 22:00 22,7 C 13,4 C 13,1 C 85 % 0 % 1014 hPa 0,0 l/m 0,0 km/h (0 Bft) 0,00 h 0,00 h
30.09.2012 23:00 22,6 C 13,2 C 12,9 C 87 % 0 % 1013 hPa 0,0 l/m 0,0 km/h (0 Bft) 0,00 h 0,00 h
Min-Datum _ 24.09.12 29.09.12 29.09.12 25.09.12 - 24.09.12 - 24.09.12 - -
_ Min-Zeit 07:16 08:07 05:37 14:05 - 12:10 - 03:31 - -
Minimum _ 20,5 C 7,8 C 8,2 C 42 % - 996 hPa - 0,0 km/h (0 Bft) - -
Max-Datum _ 28.09.12 26.09.12 28.09.12 25.09.12 24.09.12 30.09.12 24.09.12 27.09.12 24.09.12 24.09.12
_ Max-Zeit 17:40 14:00 10:34 06:29 16:01 07:47 18:19 05:09 11:22 18:16
Maximum _ 23,5 C 23,2 C 33,1 C 98 % 100 % 1016 hPa 2,1 l/m 47,2 km/h
NW (6 Bft)
0,05 h 0,05 h
Durchschnitt _ 22,5 C 14,3 C 14,7 C 83 % #22:08 h 1006 hPa #11,6 l/m 6,7 km/h (2 Bft) #22:08 h #13:36 h